Terminal Aerodrome Forecast
Issued by NWS Sioux Falls, SD

Home | Current Version | Previous Version | Graphics & Text | Print | Product List | Glossary On
Versions: 1 2 3 4 5 6 7 8 9 10 11 12 13 14 15 16 17 18 19 20 21 22 23 24 25 26 27 28 29 30 31 32 33 34 35 36 37 38 39 40 41 42 43 44
000
FTUS43 KFSD 301734
TAFSUX
TAF
KSUX 301734Z 3018/3118 31007KT P6SM BKN020
     FM301900 35004KT P6SM SCT025
     FM302100 VRB04KT P6SM SCT250
     FM302300 13007KT P6SM SCT120
     FM310600 15010KT P6SM SCT003
     FM311000 16010KT 4SM BR BKN003
     FM311500 19014G20KT P6SM BKN100=

USA.gov is the U.S. government's official web portal to all federal, state and local government web resources and services.